sensor_id;sensor_type;location;lat;lon;timestamp;P1;durP1;ratioP1;P2;durP2;ratioP2
28311;SDS011;15572;48.810;9.148;2023-04-15T00:04:04;6.93;;;3.40;;
28311;SDS011;15572;48.810;9.148;2023-04-15T00:09:00;6.90;;;3.87;;
28311;SDS011;15572;48.810;9.148;2023-04-15T00:13:57;7.97;;;4.07;;
28311;SDS011;15572;48.810;9.148;2023-04-15T00:18:54;8.77;;;3.90;;
28311;SDS011;15572;48.810;9.148;2023-04-15T00:23:52;6.67;;;2.90;;
28311;SDS011;15572;48.810;9.148;2023-04-15T00:28:48;6.17;;;2.57;;
28311;SDS011;15572;48.810;9.148;2023-04-15T00:33:45;6.17;;;2.87;;
28311;SDS011;15572;48.810;9.148;2023-04-15T00:38:42;5.83;;;3.30;;
28311;SDS011;15572;48.810;9.148;2023-04-15T00:43:40;7.80;;;3.60;;
28311;SDS011;15572;48.810;9.148;2023-04-15T00:48:37;7.67;;;3.40;;
28311;SDS011;15572;48.810;9.148;2023-04-15T00:53:34;5.07;;;2.97;;
28311;SDS011;15572;48.810;9.148;2023-04-15T00:58:31;7.17;;;3.00;;
28311;SDS011;15572;48.810;9.148;2023-04-15T01:03:29;9.03;;;2.83;;
28311;SDS011;15572;48.810;9.148;2023-04-15T01:08:26;4.60;;;2.50;;
28311;SDS011;15572;48.810;9.148;2023-04-15T01:13:23;6.33;;;2.97;;
28311;SDS011;15572;48.810;9.148;2023-04-15T01:18:20;5.07;;;2.50;;
28311;SDS011;15572;48.810;9.148;2023-04-15T01:23:18;3.63;;;2.70;;
28311;SDS011;15572;48.810;9.148;2023-04-15T01:28:17;5.13;;;2.93;;
28311;SDS011;15572;48.810;9.148;2023-04-15T01:33:14;5.07;;;2.73;;
28311;SDS011;15572;48.810;9.148;2023-04-15T01:38:10;4.70;;;3.10;;
28311;SDS011;15572;48.810;9.148;2023-04-15T01:43:08;5.17;;;2.77;;
28311;SDS011;15572;48.810;9.148;2023-04-15T01:48:06;5.70;;;3.07;;
28311;SDS011;15572;48.810;9.148;2023-04-15T01:53:03;7.27;;;2.97;;
28311;SDS011;15572;48.810;9.148;2023-04-15T01:58:00;5.73;;;2.37;;
28311;SDS011;15572;48.810;9.148;2023-04-15T02:02:56;7.27;;;2.30;;
28311;SDS011;15572;48.810;9.148;2023-04-15T02:07:54;7.47;;;3.20;;
28311;SDS011;15572;48.810;9.148;2023-04-15T02:12:51;5.73;;;2.80;;
28311;SDS011;15572;48.810;9.148;2023-04-15T02:17:48;5.47;;;2.43;;
28311;SDS011;15572;48.810;9.148;2023-04-15T02:22:46;4.70;;;2.40;;
28311;SDS011;15572;48.810;9.148;2023-04-15T02:27:44;6.17;;;2.63;;
28311;SDS011;15572;48.810;9.148;2023-04-15T02:32:41;4.30;;;2.70;;
28311;SDS011;15572;48.810;9.148;2023-04-15T02:37:38;5.13;;;2.70;;
28311;SDS011;15572;48.810;9.148;2023-04-15T02:42:37;6.07;;;2.60;;
28311;SDS011;15572;48.810;9.148;2023-04-15T02:47:35;7.00;;;2.70;;
28311;SDS011;15572;48.810;9.148;2023-04-15T02:52:34;6.93;;;2.83;;
28311;SDS011;15572;48.810;9.148;2023-04-15T02:57:30;5.63;;;2.93;;
28311;SDS011;15572;48.810;9.148;2023-04-15T03:02:28;4.43;;;3.03;;
28311;SDS011;15572;48.810;9.148;2023-04-15T03:07:30;6.83;;;3.27;;
28311;SDS011;15572;48.810;9.148;2023-04-15T03:12:26;6.17;;;3.10;;
28311;SDS011;15572;48.810;9.148;2023-04-15T03:17:24;8.00;;;3.23;;
28311;SDS011;15572;48.810;9.148;2023-04-15T03:22:20;6.33;;;3.50;;
28311;SDS011;15572;48.810;9.148;2023-04-15T03:27:18;7.10;;;3.93;;
28311;SDS011;15572;48.810;9.148;2023-04-15T03:32:15;8.17;;;3.93;;
28311;SDS011;15572;48.810;9.148;2023-04-15T03:37:11;6.80;;;4.20;;
28311;SDS011;15572;48.810;9.148;2023-04-15T03:42:07;6.00;;;4.07;;
28311;SDS011;15572;48.810;9.148;2023-04-15T03:47:05;8.53;;;4.20;;
28311;SDS011;15572;48.810;9.148;2023-04-15T03:52:02;5.10;;;3.40;;
28311;SDS011;15572;48.810;9.148;2023-04-15T03:56:59;9.10;;;4.10;;
28311;SDS011;15572;48.810;9.148;2023-04-15T04:01:55;5.90;;;3.50;;
28311;SDS011;15572;48.810;9.148;2023-04-15T04:06:53;6.37;;;3.20;;
28311;SDS011;15572;48.810;9.148;2023-04-15T04:11:50;6.17;;;3.17;;
28311;SDS011;15572;48.810;9.148;2023-04-15T04:16:46;6.43;;;3.10;;
28311;SDS011;15572;48.810;9.148;2023-04-15T04:21:42;5.50;;;3.23;;
28311;SDS011;15572;48.810;9.148;2023-04-15T04:26:40;4.30;;;3.20;;
28311;SDS011;15572;48.810;9.148;2023-04-15T04:31:37;4.87;;;3.20;;
28311;SDS011;15572;48.810;9.148;2023-04-15T04:36:33;6.03;;;2.70;;
28311;SDS011;15572;48.810;9.148;2023-04-15T04:41:30;4.77;;;2.77;;
28311;SDS011;15572;48.810;9.148;2023-04-15T04:46:28;7.83;;;3.33;;
28311;SDS011;15572;48.810;9.148;2023-04-15T04:51:25;7.83;;;3.60;;
28311;SDS011;15572;48.810;9.148;2023-04-15T04:56:21;5.97;;;3.53;;
28311;SDS011;15572;48.810;9.148;2023-04-15T05:01:18;5.13;;;3.43;;
28311;SDS011;15572;48.810;9.148;2023-04-15T05:06:16;8.30;;;3.40;;
28311;SDS011;15572;48.810;9.148;2023-04-15T05:11:12;6.27;;;3.60;;
28311;SDS011;15572;48.810;9.148;2023-04-15T05:16:09;11.47;;;3.50;;
28311;SDS011;15572;48.810;9.148;2023-04-15T05:21:05;7.27;;;3.07;;
28311;SDS011;15572;48.810;9.148;2023-04-15T05:26:03;9.87;;;4.03;;
28311;SDS011;15572;48.810;9.148;2023-04-15T05:31:00;7.17;;;3.63;;
28311;SDS011;15572;48.810;9.148;2023-04-15T05:35:56;12.07;;;4.40;;
28311;SDS011;15572;48.810;9.148;2023-04-15T05:40:53;7.47;;;4.70;;
28311;SDS011;15572;48.810;9.148;2023-04-15T05:45:51;9.03;;;4.33;;
28311;SDS011;15572;48.810;9.148;2023-04-15T05:50:48;12.07;;;5.43;;
28311;SDS011;15572;48.810;9.148;2023-04-15T05:55:44;10.07;;;4.70;;
28311;SDS011;15572;48.810;9.148;2023-04-15T06:00:41;10.63;;;5.07;;
28311;SDS011;15572;48.810;9.148;2023-04-15T06:05:39;10.77;;;5.37;;
28311;SDS011;15572;48.810;9.148;2023-04-15T06:10:35;11.77;;;5.47;;
28311;SDS011;15572;48.810;9.148;2023-04-15T06:15:32;13.80;;;6.53;;
28311;SDS011;15572;48.810;9.148;2023-04-15T06:20:28;10.90;;;6.17;;
28311;SDS011;15572;48.810;9.148;2023-04-15T06:25:26;10.80;;;6.27;;
28311;SDS011;15572;48.810;9.148;2023-04-15T06:30:23;10.47;;;5.70;;
28311;SDS011;15572;48.810;9.148;2023-04-15T06:35:19;13.17;;;6.80;;
28311;SDS011;15572;48.810;9.148;2023-04-15T06:40:16;13.10;;;7.50;;
28311;SDS011;15572;48.810;9.148;2023-04-15T06:45:14;14.53;;;7.20;;
28311;SDS011;15572;48.810;9.148;2023-04-15T06:50:11;12.33;;;7.37;;
28311;SDS011;15572;48.810;9.148;2023-04-15T06:55:07;16.03;;;7.33;;
28311;SDS011;15572;48.810;9.148;2023-04-15T07:00:04;16.80;;;7.07;;
28311;SDS011;15572;48.810;9.148;2023-04-15T07:05:04;14.50;;;7.47;;
28311;SDS011;15572;48.810;9.148;2023-04-15T07:10:01;10.07;;;6.97;;
28311;SDS011;15572;48.810;9.148;2023-04-15T07:14:58;11.80;;;6.87;;
28311;SDS011;15572;48.810;9.148;2023-04-15T07:19:54;12.47;;;6.13;;
28311;SDS011;15572;48.810;9.148;2023-04-15T07:24:52;13.13;;;5.90;;
28311;SDS011;15572;48.810;9.148;2023-04-15T07:29:49;13.13;;;6.40;;
28311;SDS011;15572;48.810;9.148;2023-04-15T07:34:46;9.83;;;5.57;;
28311;SDS011;15572;48.810;9.148;2023-04-15T07:39:42;10.87;;;5.97;;
28311;SDS011;15572;48.810;9.148;2023-04-15T07:44:40;9.47;;;6.00;;
28311;SDS011;15572;48.810;9.148;2023-04-15T07:49:37;9.63;;;5.77;;
28311;SDS011;15572;48.810;9.148;2023-04-15T07:54:33;9.83;;;5.80;;
28311;SDS011;15572;48.810;9.148;2023-04-15T07:59:30;10.67;;;5.13;;
28311;SDS011;15572;48.810;9.148;2023-04-15T08:04:28;9.70;;;5.20;;
28311;SDS011;15572;48.810;9.148;2023-04-15T08:09:25;9.40;;;4.63;;
28311;SDS011;15572;48.810;9.148;2023-04-15T08:14:22;7.30;;;4.47;;
28311;SDS011;15572;48.810;9.148;2023-04-15T08:19:19;8.47;;;3.70;;
28311;SDS011;15572;48.810;9.148;2023-04-15T08:24:18;7.80;;;3.37;;
28311;SDS011;15572;48.810;9.148;2023-04-15T08:29:15;5.13;;;2.13;;
28311;SDS011;15572;48.810;9.148;2023-04-15T08:34:11;4.23;;;2.47;;
28311;SDS011;15572;48.810;9.148;2023-04-15T08:39:08;6.67;;;2.73;;
28311;SDS011;15572;48.810;9.148;2023-04-15T08:44:06;4.50;;;2.40;;
28311;SDS011;15572;48.810;9.148;2023-04-15T08:49:03;6.63;;;2.50;;
28311;SDS011;15572;48.810;9.148;2023-04-15T08:54:01;5.53;;;2.50;;
28311;SDS011;15572;48.810;9.148;2023-04-15T08:58:58;5.17;;;2.40;;
28311;SDS011;15572;48.810;9.148;2023-04-15T09:03:56;5.53;;;2.80;;
28311;SDS011;15572;48.810;9.148;2023-04-15T09:08:54;5.67;;;3.00;;
28311;SDS011;15572;48.810;9.148;2023-04-15T09:13:51;5.93;;;2.53;;
28311;SDS011;15572;48.810;9.148;2023-04-15T09:18:48;7.13;;;2.60;;
28311;SDS011;15572;48.810;9.148;2023-04-15T09:23:55;5.97;;;2.70;;
28311;SDS011;15572;48.810;9.148;2023-04-15T09:28:52;3.77;;;2.70;;
28311;SDS011;15572;48.810;9.148;2023-04-15T09:33:57;3.97;;;2.30;;
28311;SDS011;15572;48.810;9.148;2023-04-15T09:38:55;4.43;;;2.60;;
28311;SDS011;15572;48.810;9.148;2023-04-15T09:43:52;4.90;;;2.57;;
28311;SDS011;15572;48.810;9.148;2023-04-15T09:48:49;4.27;;;2.63;;
28311;SDS011;15572;48.810;9.148;2023-04-15T09:54:04;5.40;;;2.60;;
28311;SDS011;15572;48.810;9.148;2023-04-15T09:59:01;5.57;;;3.00;;
28311;SDS011;15572;48.810;9.148;2023-04-15T10:03:57;5.80;;;2.73;;
28311;SDS011;15572;48.810;9.148;2023-04-15T10:08:58;4.03;;;2.97;;
28311;SDS011;15572;48.810;9.148;2023-04-15T10:13:57;6.07;;;2.73;;
28311;SDS011;15572;48.810;9.148;2023-04-15T10:18:54;5.23;;;2.73;;
28311;SDS011;15572;48.810;9.148;2023-04-15T10:23:51;5.83;;;3.20;;
28311;SDS011;15572;48.810;9.148;2023-04-15T10:28:48;6.83;;;3.63;;
28311;SDS011;15572;48.810;9.148;2023-04-15T10:33:46;4.60;;;3.33;;
28311;SDS011;15572;48.810;9.148;2023-04-15T10:38:44;7.53;;;3.90;;
28311;SDS011;15572;48.810;9.148;2023-04-15T10:43:44;5.77;;;3.70;;
28311;SDS011;15572;48.810;9.148;2023-04-15T10:48:47;4.27;;;3.10;;
28311;SDS011;15572;48.810;9.148;2023-04-15T10:53:44;6.97;;;2.70;;
28311;SDS011;15572;48.810;9.148;2023-04-15T10:58:40;6.93;;;3.60;;
28311;SDS011;15572;48.810;9.148;2023-04-15T11:03:38;6.57;;;2.90;;
28311;SDS011;15572;48.810;9.148;2023-04-15T11:08:54;7.10;;;3.20;;
28311;SDS011;15572;48.810;9.148;2023-04-15T11:13:52;6.17;;;2.83;;
28311;SDS011;15572;48.810;9.148;2023-04-15T11:18:52;7.67;;;3.10;;
28311;SDS011;15572;48.810;9.148;2023-04-15T11:23:49;7.37;;;2.97;;
28311;SDS011;15572;48.810;9.148;2023-04-15T11:28:47;7.07;;;3.30;;
28311;SDS011;15572;48.810;9.148;2023-04-15T11:33:44;7.17;;;3.13;;
28311;SDS011;15572;48.810;9.148;2023-04-15T11:38:42;7.43;;;3.23;;
28311;SDS011;15572;48.810;9.148;2023-04-15T11:43:40;4.50;;;3.50;;
28311;SDS011;15572;48.810;9.148;2023-04-15T11:48:40;6.20;;;3.10;;
28311;SDS011;15572;48.810;9.148;2023-04-15T11:53:38;5.27;;;3.17;;
28311;SDS011;15572;48.810;9.148;2023-04-15T11:58:37;6.50;;;3.43;;
28311;SDS011;15572;48.810;9.148;2023-04-15T12:03:38;4.87;;;2.83;;
28311;SDS011;15572;48.810;9.148;2023-04-15T12:08:54;5.63;;;3.47;;
28311;SDS011;15572;48.810;9.148;2023-04-15T12:13:54;7.37;;;3.43;;
28311;SDS011;15572;48.810;9.148;2023-04-15T12:18:54;5.17;;;3.33;;
28311;SDS011;15572;48.810;9.148;2023-04-15T12:23:53;4.73;;;2.97;;
28311;SDS011;15572;48.810;9.148;2023-04-15T12:28:52;4.93;;;2.70;;
28311;SDS011;15572;48.810;9.148;2023-04-15T12:33:49;5.27;;;3.50;;
28311;SDS011;15572;48.810;9.148;2023-04-15T12:38:47;6.13;;;3.70;;
28311;SDS011;15572;48.810;9.148;2023-04-15T12:43:44;6.33;;;3.80;;
28311;SDS011;15572;48.810;9.148;2023-04-15T12:48:40;5.70;;;3.40;;
28311;SDS011;15572;48.810;9.148;2023-04-15T12:53:37;6.23;;;3.70;;
28311;SDS011;15572;48.810;9.148;2023-04-15T12:58:35;3.57;;;3.23;;
28311;SDS011;15572;48.810;9.148;2023-04-15T13:03:31;3.57;;;3.13;;
28311;SDS011;15572;48.810;9.148;2023-04-15T13:08:28;8.57;;;3.00;;
28311;SDS011;15572;48.810;9.148;2023-04-15T13:13:24;4.80;;;2.97;;
28311;SDS011;15572;48.810;9.148;2023-04-15T13:18:22;5.27;;;2.70;;
28311;SDS011;15572;48.810;9.148;2023-04-15T13:23:19;3.37;;;2.50;;
28311;SDS011;15572;48.810;9.148;2023-04-15T13:28:15;4.03;;;2.40;;
28311;SDS011;15572;48.810;9.148;2023-04-15T13:33:12;3.17;;;2.27;;
28311;SDS011;15572;48.810;9.148;2023-04-15T13:38:09;5.13;;;2.10;;
28311;SDS011;15572;48.810;9.148;2023-04-15T13:43:06;2.07;;;1.40;;
28311;SDS011;15572;48.810;9.148;2023-04-15T13:48:03;1.90;;;1.40;;
28311;SDS011;15572;48.810;9.148;2023-04-15T13:52:59;3.00;;;1.40;;
28311;SDS011;15572;48.810;9.148;2023-04-15T13:57:57;2.23;;;1.60;;
28311;SDS011;15572;48.810;9.148;2023-04-15T14:02:53;2.63;;;1.37;;
28311;SDS011;15572;48.810;9.148;2023-04-15T14:07:50;4.57;;;1.20;;
28311;SDS011;15572;48.810;9.148;2023-04-15T14:12:46;1.80;;;1.30;;
28311;SDS011;15572;48.810;9.148;2023-04-15T14:17:44;2.83;;;1.17;;
28311;SDS011;15572;48.810;9.148;2023-04-15T14:22:41;2.23;;;1.70;;
28311;SDS011;15572;48.810;9.148;2023-04-15T14:27:37;2.70;;;1.63;;
28311;SDS011;15572;48.810;9.148;2023-04-15T14:32:34;4.50;;;1.60;;
28311;SDS011;15572;48.810;9.148;2023-04-15T14:37:31;3.93;;;2.00;;
28311;SDS011;15572;48.810;9.148;2023-04-15T14:42:28;2.47;;;1.70;;
28311;SDS011;15572;48.810;9.148;2023-04-15T14:47:25;1.70;;;1.60;;
28311;SDS011;15572;48.810;9.148;2023-04-15T14:52:21;3.27;;;2.27;;
28311;SDS011;15572;48.810;9.148;2023-04-15T14:57:19;3.47;;;1.70;;
28311;SDS011;15572;48.810;9.148;2023-04-15T15:02:15;2.13;;;1.60;;
28311;SDS011;15572;48.810;9.148;2023-04-15T15:07:12;2.57;;;1.80;;
28311;SDS011;15572;48.810;9.148;2023-04-15T15:12:08;3.87;;;2.30;;
28311;SDS011;15572;48.810;9.148;2023-04-15T15:17:07;2.00;;;1.80;;
28311;SDS011;15572;48.810;9.148;2023-04-15T15:22:04;3.30;;;2.20;;
28311;SDS011;15572;48.810;9.148;2023-04-15T15:27:01;4.13;;;2.00;;
28311;SDS011;15572;48.810;9.148;2023-04-15T15:31:58;3.47;;;1.80;;
28311;SDS011;15572;48.810;9.148;2023-04-15T15:36:56;2.93;;;2.17;;
28311;SDS011;15572;48.810;9.148;2023-04-15T15:41:52;2.20;;;2.00;;
28311;SDS011;15572;48.810;9.148;2023-04-15T15:46:49;3.73;;;2.17;;
28311;SDS011;15572;48.810;9.148;2023-04-15T15:51:46;3.87;;;2.40;;
28311;SDS011;15572;48.810;9.148;2023-04-15T15:56:45;5.07;;;3.57;;
28311;SDS011;15572;48.810;9.148;2023-04-15T16:01:41;3.03;;;2.57;;
28311;SDS011;15572;48.810;9.148;2023-04-15T16:06:38;3.87;;;2.03;;
28311;SDS011;15572;48.810;9.148;2023-04-15T16:11:35;3.00;;;1.80;;
28311;SDS011;15572;48.810;9.148;2023-04-15T16:16:33;2.70;;;2.07;;
28311;SDS011;15572;48.810;9.148;2023-04-15T16:21:30;2.00;;;1.90;;
28311;SDS011;15572;48.810;9.148;2023-04-15T16:26:26;4.47;;;2.43;;
28311;SDS011;15572;48.810;9.148;2023-04-15T16:31:23;2.87;;;2.30;;
28311;SDS011;15572;48.810;9.148;2023-04-15T16:36:20;4.37;;;2.60;;
28311;SDS011;15572;48.810;9.148;2023-04-15T16:41:17;3.33;;;2.47;;
28311;SDS011;15572;48.810;9.148;2023-04-15T16:46:13;3.20;;;2.90;;
28311;SDS011;15572;48.810;9.148;2023-04-15T16:51:10;3.70;;;2.90;;
28311;SDS011;15572;48.810;9.148;2023-04-15T16:56:08;4.37;;;2.83;;
28311;SDS011;15572;48.810;9.148;2023-04-15T17:01:04;3.13;;;2.83;;
28311;SDS011;15572;48.810;9.148;2023-04-15T17:06:01;3.80;;;3.10;;
28311;SDS011;15572;48.810;9.148;2023-04-15T17:10:57;4.70;;;4.20;;
28311;SDS011;15572;48.810;9.148;2023-04-15T17:15:55;4.63;;;2.90;;
28311;SDS011;15572;48.810;9.148;2023-04-15T17:20:51;3.57;;;2.83;;
28311;SDS011;15572;48.810;9.148;2023-04-15T17:25:48;3.30;;;2.43;;
28311;SDS011;15572;48.810;9.148;2023-04-15T17:30:45;3.13;;;2.83;;
28311;SDS011;15572;48.810;9.148;2023-04-15T17:35:43;3.03;;;2.60;;
28311;SDS011;15572;48.810;9.148;2023-04-15T17:40:39;3.20;;;2.67;;
28311;SDS011;15572;48.810;9.148;2023-04-15T17:45:36;4.13;;;2.80;;
28311;SDS011;15572;48.810;9.148;2023-04-15T17:50:32;4.33;;;3.67;;
28311;SDS011;15572;48.810;9.148;2023-04-15T17:55:31;3.50;;;2.77;;
28311;SDS011;15572;48.810;9.148;2023-04-15T18:00:27;3.93;;;2.97;;
28311;SDS011;15572;48.810;9.148;2023-04-15T18:05:24;3.17;;;2.87;;
28311;SDS011;15572;48.810;9.148;2023-04-15T18:10:20;12.13;;;6.40;;
28311;SDS011;15572;48.810;9.148;2023-04-15T18:15:19;3.17;;;2.87;;
28311;SDS011;15572;48.810;9.148;2023-04-15T18:20:15;3.50;;;2.70;;
28311;SDS011;15572;48.810;9.148;2023-04-15T18:25:12;4.50;;;3.03;;
28311;SDS011;15572;48.810;9.148;2023-04-15T18:30:09;4.67;;;3.50;;
28311;SDS011;15572;48.810;9.148;2023-04-15T18:35:09;3.57;;;3.10;;
28311;SDS011;15572;48.810;9.148;2023-04-15T18:40:05;4.13;;;3.07;;
28311;SDS011;15572;48.810;9.148;2023-04-15T18:45:03;17.30;;;9.73;;
28311;SDS011;15572;48.810;9.148;2023-04-15T18:50:00;3.70;;;3.00;;
28311;SDS011;15572;48.810;9.148;2023-04-15T18:54:58;3.90;;;3.50;;
28311;SDS011;15572;48.810;9.148;2023-04-15T18:59:54;5.10;;;4.60;;
28311;SDS011;15572;48.810;9.148;2023-04-15T19:04:51;4.50;;;4.00;;
28311;SDS011;15572;48.810;9.148;2023-04-15T19:09:47;4.47;;;3.90;;
28311;SDS011;15572;48.810;9.148;2023-04-15T19:14:45;5.17;;;4.40;;
28311;SDS011;15572;48.810;9.148;2023-04-15T19:19:41;6.07;;;3.30;;
28311;SDS011;15572;48.810;9.148;2023-04-15T19:24:38;7.57;;;5.80;;
28311;SDS011;15572;48.810;9.148;2023-04-15T19:29:34;9.67;;;6.63;;
28311;SDS011;15572;48.810;9.148;2023-04-15T19:34:32;9.30;;;8.10;;
28311;SDS011;15572;48.810;9.148;2023-04-15T19:39:29;10.17;;;9.07;;
28311;SDS011;15572;48.810;9.148;2023-04-15T19:44:25;11.10;;;8.10;;
28311;SDS011;15572;48.810;9.148;2023-04-15T19:49:22;10.63;;;7.67;;
28311;SDS011;15572;48.810;9.148;2023-04-15T19:54:21;12.37;;;8.20;;
28311;SDS011;15572;48.810;9.148;2023-04-15T19:59:18;10.40;;;8.00;;
28311;SDS011;15572;48.810;9.148;2023-04-15T20:04:14;11.37;;;8.30;;
28311;SDS011;15572;48.810;9.148;2023-04-15T20:09:11;9.97;;;8.03;;
28311;SDS011;15572;48.810;9.148;2023-04-15T20:14:09;8.47;;;5.83;;
28311;SDS011;15572;48.810;9.148;2023-04-15T20:19:05;10.17;;;7.43;;
28311;SDS011;15572;48.810;9.148;2023-04-15T20:24:02;10.90;;;8.50;;
28311;SDS011;15572;48.810;9.148;2023-04-15T20:28:59;10.20;;;8.53;;
28311;SDS011;15572;48.810;9.148;2023-04-15T20:33:57;10.93;;;8.97;;
28311;SDS011;15572;48.810;9.148;2023-04-15T20:38:54;11.17;;;9.30;;
28311;SDS011;15572;48.810;9.148;2023-04-15T20:43:50;13.63;;;9.60;;
28311;SDS011;15572;48.810;9.148;2023-04-15T20:48:46;11.87;;;8.73;;
28311;SDS011;15572;48.810;9.148;2023-04-15T20:53:44;13.10;;;10.00;;
28311;SDS011;15572;48.810;9.148;2023-04-15T20:58:41;12.37;;;9.63;;
28311;SDS011;15572;48.810;9.148;2023-04-15T21:03:37;13.73;;;9.97;;
28311;SDS011;15572;48.810;9.148;2023-04-15T21:08:34;12.67;;;9.70;;
28311;SDS011;15572;48.810;9.148;2023-04-15T21:13:32;13.37;;;10.60;;
28311;SDS011;15572;48.810;9.148;2023-04-15T21:18:28;15.43;;;11.37;;
28311;SDS011;15572;48.810;9.148;2023-04-15T21:23:25;15.40;;;12.10;;
28311;SDS011;15572;48.810;9.148;2023-04-15T21:28:23;14.40;;;11.80;;
28311;SDS011;15572;48.810;9.148;2023-04-15T21:33:23;15.33;;;11.67;;
28311;SDS011;15572;48.810;9.148;2023-04-15T21:38:19;14.70;;;11.60;;
28311;SDS011;15572;48.810;9.148;2023-04-15T21:43:16;15.83;;;11.60;;
28311;SDS011;15572;48.810;9.148;2023-04-15T21:48:12;18.00;;;13.00;;
28311;SDS011;15572;48.810;9.148;2023-04-15T21:53:13;17.53;;;12.83;;
28311;SDS011;15572;48.810;9.148;2023-04-15T21:58:10;17.30;;;12.47;;
28311;SDS011;15572;48.810;9.148;2023-04-15T22:03:07;17.50;;;13.10;;
28311;SDS011;15572;48.810;9.148;2023-04-15T22:08:04;18.00;;;13.43;;
28311;SDS011;15572;48.810;9.148;2023-04-15T22:13:03;18.10;;;13.47;;
28311;SDS011;15572;48.810;9.148;2023-04-15T22:18:02;18.47;;;13.17;;
28311;SDS011;15572;48.810;9.148;2023-04-15T22:22:59;19.47;;;14.37;;
28311;SDS011;15572;48.810;9.148;2023-04-15T22:27:58;20.93;;;15.07;;
28311;SDS011;15572;48.810;9.148;2023-04-15T22:32:58;20.43;;;14.87;;
28311;SDS011;15572;48.810;9.148;2023-04-15T22:37:55;17.37;;;11.20;;
28311;SDS011;15572;48.810;9.148;2023-04-15T22:42:51;20.93;;;13.60;;
28311;SDS011;15572;48.810;9.148;2023-04-15T22:47:47;16.93;;;12.13;;
28311;SDS011;15572;48.810;9.148;2023-04-15T22:52:46;19.67;;;13.70;;
28311;SDS011;15572;48.810;9.148;2023-04-15T22:57:43;20.77;;;15.23;;
28311;SDS011;15572;48.810;9.148;2023-04-15T23:02:39;18.47;;;12.90;;
28311;SDS011;15572;48.810;9.148;2023-04-15T23:07:36;18.17;;;13.37;;
28311;SDS011;15572;48.810;9.148;2023-04-15T23:12:33;19.03;;;13.83;;
28311;SDS011;15572;48.810;9.148;2023-04-15T23:17:30;20.23;;;14.60;;
28311;SDS011;15572;48.810;9.148;2023-04-15T23:22:26;23.00;;;16.03;;
28311;SDS011;15572;48.810;9.148;2023-04-15T23:27:23;21.17;;;15.10;;
28311;SDS011;15572;48.810;9.148;2023-04-15T23:32:21;22.47;;;14.87;;
28311;SDS011;15572;48.810;9.148;2023-04-15T23:37:17;23.50;;;16.60;;
28311;SDS011;15572;48.810;9.148;2023-04-15T23:42:14;22.23;;;15.67;;
28311;SDS011;15572;48.810;9.148;2023-04-15T23:47:11;24.57;;;15.20;;
28311;SDS011;15572;48.810;9.148;2023-04-15T23:52:08;21.83;;;15.37;;
28311;SDS011;15572;48.810;9.148;2023-04-15T23:57:05;23.20;;;15.90;;
